x

Eel River - 17nm Wsw Of Eureka, Ca (46022) Wave Buoy

5:50am - Tue 25th Jul 2017 All times are PDT. -7 hours from GMT.

  • Sig Wave height 7.5ft
  • Swell Direction
  • Peak Period 10s
  • Average Period 7s
  • Wind
    7mph, 9mph gusts
  • Sea Temp 55°f
  • Air Temp 53°f
  • Sea Pressure 1012.7mb
  • Eel River - 17nm Wsw Of Eureka, Ca
  • Eel River - 17nm Wsw Of Eureka, Ca

More Historic Weather Station data

Upgrade to MSW Pro to gain access to the past 30 days of data for over 8000 Wavebouys and Weather Stations around the globe.

Join Pro

Comparision Forecast

View Surf forecast
   
Tue 07/25 5:50am 7.5ft 10s 7s 7 9 mph 1012.7mb 55f 53f
4:50am 8.5ft 10s 7s 2 4 mph 1012.3mb 55f 53f
3:50am 9ft 8s 7s 4 7 mph 1011.8mb 55f 53f
2:50am 9ft 9s 7s 2 4 mph 1011.2mb 55f 54f
1:50am 8.5ft 8s 7s 4 9 mph 1011.1mb 55f 55f
12:50am 10ft 9s 7s 7 9 mph 1011.2mb 54f 54f
Mon 07/24 11:50pm 9.5ft 8s 7s 13 16 mph 1011.2mb 54f 55f
10:50pm 9ft 9s 7s 13 16 mph 1011.4mb 54f 56f
9:50pm 9.5ft 8s 7s 16 20 mph 1011.5mb 55f 56f
8:50pm 10ft 9s 7s 16 20 mph 1011.4mb 55f 56f
7:50pm 10ft 9s 7s 13 18 mph 1011.1mb 55f 56f
6:50pm 10.5ft 9s 7s 16 18 mph 1011mb 55f 56f
5:50pm 10ft 9s 7s 16 20 mph 1011.1mb 56f 56f
4:50pm 10ft 9s 7s 18 22 mph 1011.3mb 56f 55f
3:50pm 10ft 10s 7s 20 22 mph 1011.3mb 56f 56f
2:50pm 10ft 10s 7s 20 25 mph 1011.2mb 56f 55f
1:50pm 11ft 9s 7s 22 25 mph 1011mb 55f 55f
12:50pm 10ft 9s 7s 18 22 mph 1011mb 55f 55f
11:50am 11.5ft 9s 7s 18 22 mph 1011mb 54f 54f
10:50am 12.5ft 10s 8s 18 22 mph 1010.6mb 54f 53f
8:50am 12.5ft 10s 8s 22 27 mph 1010.7mb 55f 55f
7:50am 13ft 10s 8s 20 25 mph 1010.6mb 55f 55f
6:50am 12ft 10s 7s 22 27 mph 1010.5mb 55f 55f
5:50am 11ft 10s 7s 22 27 mph 1010.1mb 55f 55f
4:50am 13ft 9s 8s 25 31 mph 1009.6mb 56f 55f
3:50am 12.5ft 10s 7s 27 34 mph 1009.3mb 56f 56f
2:50am 11.5ft 10s 7s 29 34 mph 1009.3mb 56f 56f
1:50am 14ft 10s 7s 29 36 mph 1009.4mb 56f 56f
12:50am 16ft 10s 8s 29 38 mph 1009.4mb 57f 56f
Sun 07/23 11:50pm 15.5ft 10s 8s 27 34 mph 1009.9mb 57f 57f
10:50pm 15ft 11s 8s 27 34 mph 1010.4mb 56f 57f
9:50pm 15ft 10s 8s 25 29 mph 1010.7mb 57f 58f
8:50pm 15ft 10s 8s 22 29 mph 1010.8mb 57f 58f
7:50pm 14ft 10s 8s 20 25 mph 1011mb 57f 58f
6:50pm 12.5ft 10s 7s 22 27 mph 1010.8mb 57f 58f
5:50pm 12.5ft 10s 7s 22 27 mph 1011.2mb 58f 58f
4:50pm 11.5ft 9s 7s 22 29 mph 1011mb 58f 58f
2:50pm 10.5ft 9s 7s 25 29 mph 1010.9mb 58f 58f
1:50pm 10.5ft 9s 7s 22 27 mph 1010.9mb 58f 57f
12:50pm 10ft 9s 7s 22 27 mph 1011.2mb 58f 57f
11:50am 11ft 9s 7s 27 31 mph 1011.1mb 57f 56f
10:50am 11ft 9s 7s 25 31 mph 1010.9mb 57f 56f
9:50am 10ft 8s 6s 27 31 mph 1011.2mb 58f 56f
8:50am 11ft 9s 7s 25 31 mph 1011.3mb 58f 56f
7:50am 11.5ft 9s 7s 27 31 mph 1011.3mb 58f 57f
6:50am 11ft 8s 7s 27 34 mph 1010.9mb 59f 57f
5:50am 10ft 9s 7s 27 31 mph 1011.1mb 59f 57f
4:50am 11ft 8s 7s 29 34 mph 1010.7mb 60f 57f
3:50am 10ft 9s 7s 29 34 mph 1010.8mb 60f 57f
2:50am 12ft 9s 7s 29 36 mph 1011.2mb 60f 58f
1:50am 12ft 8s 7s 27 34 mph 1011.8mb 59f 58f
12:50am 11ft 8s 7s 25 31 mph 1012.5mb 59f 59f
Sat 07/22 11:50pm 10ft 9s 7s 20 25 mph 1013.1mb 58f 60f
10:50pm 9.5ft 8s 7s 18 22 mph 1013.5mb 58f 60f
9:50pm 10.5ft 8s 7s 18 22 mph 1013.8mb 58f 60f
8:50pm 8ft 8s 6s 18 22 mph 1014.1mb 59f 60f
7:50pm 8.5ft 8s 6s 20 25 mph 1014mb 60f 61f
6:50pm 7ft 8s 6s 18 22 mph 1014mb 60f 61f
5:50pm 6.5ft 7s 6s 16 22 mph 1014.4mb 60f 61f
4:50pm 6ft 7s 6s 16 18 mph 1014.7mb 60f 61f
3:50pm 5ft 7s 6s 16 18 mph 1015.1mb 60f 61f
2:50pm 5ft 8s 5s 18 22 mph 1015mb 59f 60f
1:50pm 5ft 7s 5s 13 16 mph 1015.8mb 58f 60f
12:50pm 5ft 7s 5s 20 25 mph 1015.4mb 58f 59f
11:50am 5ft 6s 5s 20 25 mph 1015.9mb 57f 59f
10:50am 5ft 6s 5s 20 22 mph 1015.8mb 57f 58f
9:50am 5ft 6s 5s 11 13 mph 1016.1mb 58f 57f
8:50am 4.5ft 6s 5s 16 20 mph 1016.5mb 57f 58f
7:50am 5ft 6s 5s 20 22 mph 1016.4mb 58f 58f
6:50am 5ft 6s 5s 20 25 mph 1016.2mb 58f 58f
5:50am 4.5ft 6s 5s 20 22 mph 1016.3mb 58f 57f
4:50am 4.5ft 6s 5s 25 29 mph 1016.1mb 57f 58f
3:50am 4ft 6s 4s 22 29 mph 1016.6mb 57f 59f
2:50am 2.5ft 5s 5s 22 29 mph 1017mb 56f 60f
1:50am 2.5ft 5s 5s 11 13 mph 1017.9mb 55f 59f
12:50am 2.5ft 14s 5s 7 9 mph 1018.4mb 55f 58f
Fri 07/21 11:50pm 2.5ft 14s 4s 9 9 mph 1018.7mb 55f 58f
10:50pm 2ft 16s 4s 9 11 mph 1019.1mb 55f 58f
9:50pm 2ft 15s 4s 9 11 mph 1019.1mb 55f 58f
8:50pm 2.5ft 13s 4s 11 11 mph 1019.1mb 56f 59f
7:50pm 2.5ft 15s 4s 11 13 mph 1019.3mb 56f 59f
6:50pm 2.5ft 15s 4s 13 13 mph 1019.4mb 56f 60f
5:50pm 2.5ft 14s 4s 13 16 mph 1019.6mb 57f 60f
4:50pm 2.5ft 15s 4s 13 16 mph 1019.9mb 56f 59f
3:50pm 2.5ft 15s 4s 11 13 mph 1020.1mb 56f 59f
2:50pm 2.5ft 14s 4s 11 13 mph 1020.3mb 56f 59f